createdAt,value
2019-04-06T00:01:12.342Z,45.07
2019-04-06T00:03:41.829Z,43.60
2019-04-06T00:06:11.352Z,47.63
2019-04-06T00:08:40.847Z,52.70
2019-04-06T00:11:10.384Z,47.13
2019-04-06T00:13:39.879Z,45.20
2019-04-06T00:16:09.426Z,34.30
2019-04-06T00:18:38.963Z,39.93
2019-04-06T00:21:08.482Z,50.47
2019-04-06T00:23:37.991Z,41.60
2019-04-06T00:26:07.643Z,38.30
2019-04-06T00:28:37.172Z,41.07
2019-04-06T00:31:13.491Z,43.47
2019-04-06T00:33:43.014Z,42.70
2019-04-06T00:36:12.576Z,39.80
2019-04-06T00:38:42.117Z,35.07
2019-04-06T00:41:11.762Z,32.93
2019-04-06T00:43:41.473Z,40.40
2019-04-06T00:46:11.053Z,39.93
2019-04-06T00:48:40.655Z,41.23
2019-04-06T00:51:10.161Z,42.43
2019-04-06T00:53:39.670Z,36.57
2019-04-06T00:56:09.246Z,29.23
2019-04-06T00:58:38.851Z,40.20
2019-04-06T01:01:08.417Z,31.90
2019-04-06T01:03:38.001Z,30.17
2019-04-06T01:06:07.551Z,38.10
2019-04-06T01:08:37.058Z,41.77
2019-04-06T01:11:06.626Z,34.80
2019-04-06T01:13:36.163Z,40.80
2019-04-06T01:16:05.716Z,28.10
2019-04-06T01:18:35.273Z,32.63
2019-04-06T01:21:04.827Z,41.23
2019-04-06T01:23:34.420Z,46.03
2019-04-06T01:26:07.373Z,50.33
2019-04-06T01:28:35.459Z,47.53
2019-04-06T01:31:04.995Z,50.70
2019-04-06T01:33:34.594Z,47.37
2019-04-06T01:36:04.161Z,49.47
2019-04-06T01:38:33.766Z,56.30
2019-04-06T01:41:03.313Z,37.93
2019-04-06T01:43:32.815Z,48.30
2019-04-06T01:46:02.352Z,35.47
2019-04-06T01:48:31.905Z,38.90
2019-04-06T01:51:01.459Z,35.20
2019-04-06T01:53:31.002Z,42.40
2019-04-06T01:56:00.525Z,42.90
2019-04-06T01:58:30.127Z,47.57
2019-04-06T02:01:18.579Z,37.50
2019-04-06T02:03:48.210Z,42.97
2019-04-06T02:06:17.779Z,42.83
2019-04-06T02:08:47.315Z,32.27
2019-04-06T02:11:16.838Z,43.40
2019-04-06T02:13:46.402Z,46.80
2019-04-06T02:16:15.915Z,33.40
2019-04-06T02:18:45.436Z,43.33
2019-04-06T02:21:14.994Z,44.07
2019-04-06T02:23:44.602Z,44.33
2019-04-06T02:26:14.157Z,35.17
2019-04-06T02:28:43.707Z,46.67
2019-04-06T02:31:35.450Z,49.30
2019-04-06T02:34:24.010Z,38.67
2019-04-06T02:37:15.252Z,50.13
2019-04-06T02:39:55.776Z,47.20
2019-04-06T02:42:30.279Z,43.67
2019-04-06T02:44:59.786Z,45.90
2019-04-06T02:47:29.332Z,48.33
2019-04-06T02:49:58.928Z,61.47
2019-04-06T02:52:28.461Z,49.60
2019-04-06T02:54:58.001Z,54.67
2019-04-06T02:57:27.495Z,55.67
2019-04-06T02:59:57.134Z,54.97
2019-04-06T03:02:26.661Z,43.40
2019-04-06T03:04:56.201Z,40.83
2019-04-06T03:07:25.712Z,35.77
2019-04-06T03:09:55.267Z,46.00
2019-04-06T03:12:24.803Z,42.20
2019-04-06T03:14:54.321Z,34.77
2019-04-06T03:17:23.875Z,31.67
2019-04-06T03:19:53.398Z,38.60
2019-04-06T03:22:22.952Z,39.87
2019-04-06T03:24:52.475Z,38.57
2019-04-06T03:27:22.047Z,26.53
2019-04-06T03:29:58.343Z,30.53
2019-04-06T03:32:22.756Z,33.20
2019-04-06T03:34:52.320Z,25.80
2019-04-06T03:37:21.965Z,30.17
2019-04-06T03:39:51.555Z,34.03
2019-04-06T03:42:21.318Z,32.10
2019-04-06T03:44:50.934Z,31.43
2019-04-06T03:47:20.414Z,32.60
2019-04-06T03:49:49.951Z,26.03
2019-04-06T03:52:19.451Z,34.03
2019-04-06T03:54:48.946Z,34.67
2019-04-06T03:57:18.435Z,34.50
2019-04-06T03:59:47.951Z,35.97
2019-04-06T04:02:17.584Z,33.80
2019-04-06T04:04:47.087Z,35.37
2019-04-06T04:07:16.625Z,24.73
2019-04-06T04:09:46.479Z,33.03
2019-04-06T04:12:15.975Z,21.20
2019-04-06T04:14:45.504Z,23.17
2019-04-06T04:17:15.073Z,20.80
2019-04-06T04:19:44.602Z,28.53
2019-04-06T04:22:14.077Z,35.93
2019-04-06T04:24:43.592Z,25.80
2019-04-06T04:27:13.055Z,27.37
2019-04-06T04:29:42.615Z,41.07
2019-04-06T04:32:12.107Z,35.33
2019-04-06T04:34:42.268Z,32.63
2019-04-06T04:37:11.934Z,34.47
2019-04-06T04:39:41.580Z,25.83
2019-04-06T04:42:11.071Z,23.00
2019-04-06T04:44:40.536Z,18.70
2019-04-06T04:47:10.071Z,24.33
2019-04-06T04:49:39.556Z,24.80
2019-04-06T04:52:09.048Z,28.00
2019-04-06T04:54:38.535Z,45.47
2019-04-06T04:57:08.149Z,34.50
2019-04-06T04:59:37.642Z,45.00
2019-04-06T05:02:07.174Z,51.03
2019-04-06T05:04:36.725Z,78.57
2019-04-06T05:07:06.237Z,47.33
2019-04-06T05:09:35.770Z,62.60
2019-04-06T05:12:05.251Z,32.63
2019-04-06T05:14:59.505Z,36.20
2019-04-06T05:17:29.245Z,30.00
2019-04-06T05:19:58.865Z,37.10
2019-04-06T05:22:28.596Z,29.33
2019-04-06T05:24:58.091Z,29.70
2019-04-06T05:27:27.609Z,39.47
2019-04-06T05:29:57.136Z,26.07
2019-04-06T05:32:26.667Z,36.10
2019-04-06T05:34:58.099Z,26.30
2019-04-06T05:37:27.310Z,27.97
2019-04-06T05:39:56.833Z,24.67
2019-04-06T05:42:26.348Z,38.37
2019-04-06T05:44:55.895Z,28.47
2019-04-06T05:47:25.417Z,42.90
2019-04-06T05:49:55.092Z,28.17
2019-04-06T05:52:24.783Z,30.33
2019-04-06T05:54:54.253Z,47.33
2019-04-06T05:57:23.754Z,75.97
2019-04-06T05:59:53.446Z,62.67
2019-04-06T06:02:23.069Z,44.33
2019-04-06T06:04:52.532Z,49.43
2019-04-06T06:07:22.058Z,58.53
2019-04-06T06:09:51.578Z,52.97
2019-04-06T06:12:21.168Z,47.17
2019-04-06T06:14:50.784Z,55.93
2019-04-06T06:17:20.409Z,41.40
2019-04-06T06:19:49.972Z,51.20
2019-04-06T06:22:19.487Z,42.37
2019-04-06T06:24:48.987Z,46.03
2019-04-06T06:27:18.523Z,27.43
2019-04-06T06:29:48.014Z,51.03
2019-04-06T06:32:17.502Z,47.23
2019-04-06T06:34:47.185Z,44.73
2019-04-06T06:37:16.704Z,56.60
2019-04-06T06:39:46.277Z,53.70
2019-04-06T06:42:15.724Z,37.17
2019-04-06T06:44:45.221Z,43.03
2019-04-06T06:47:14.735Z,56.73
2019-04-06T06:49:44.272Z,97.47
2019-04-06T06:52:13.762Z,62.30
2019-04-06T06:54:46.381Z,62.07
2019-04-06T06:57:15.854Z,93.83
2019-04-06T06:59:45.365Z,42.27
2019-04-06T07:02:14.844Z,83.67
2019-04-06T07:04:47.169Z,83.90
2019-04-06T07:07:16.683Z,178.30
2019-04-06T07:09:46.220Z,85.47
2019-04-06T07:12:15.706Z,47.20
2019-04-06T07:14:45.260Z,59.07
2019-04-06T07:17:14.757Z,45.80
2019-04-06T07:19:44.308Z,53.67
2019-04-06T07:22:13.886Z,47.60
2019-04-06T07:24:46.234Z,60.73
2019-04-06T07:27:15.729Z,51.30
2019-04-06T07:29:45.242Z,57.60
2019-04-06T07:32:14.940Z,61.73
2019-04-06T07:34:44.377Z,61.07
2019-04-06T07:37:13.893Z,59.70
2019-04-06T07:39:43.486Z,56.60
2019-04-06T07:42:13.126Z,56.13
2019-04-06T07:44:42.670Z,54.33
2019-04-06T07:47:12.196Z,58.10
2019-04-06T07:49:41.659Z,66.93
2019-04-06T07:52:11.433Z,69.83
2019-04-06T07:54:40.947Z,66.67
2019-04-06T07:57:10.428Z,64.83
2019-04-06T07:59:39.970Z,64.53
2019-04-06T08:02:09.525Z,74.77
2019-04-06T08:04:39.183Z,66.33
2019-04-06T08:07:08.943Z,68.33
2019-04-06T08:09:38.607Z,67.97
2019-04-06T08:12:08.087Z,66.17
2019-04-06T08:14:37.555Z,68.00
2019-04-06T08:17:07.201Z,65.17
2019-04-06T08:19:36.737Z,62.83
2019-04-06T08:22:06.270Z,71.17
2019-04-06T08:24:37.798Z,60.77
2019-04-06T08:27:07.266Z,68.10
2019-04-06T08:29:36.805Z,68.67
2019-04-06T08:32:06.495Z,63.63
2019-04-06T08:34:36.559Z,59.97
2019-04-06T08:37:06.062Z,53.13
2019-04-06T08:39:35.602Z,59.80
2019-04-06T08:42:05.073Z,55.67
2019-04-06T08:44:34.766Z,59.63
2019-04-06T08:47:04.290Z,56.20
2019-04-06T08:49:33.787Z,54.87
2019-04-06T08:52:03.304Z,56.80
2019-04-06T08:54:33.007Z,58.37
2019-04-06T08:57:02.910Z,59.07
2019-04-06T08:59:32.635Z,58.67
2019-04-06T09:02:02.229Z,56.73
2019-04-06T09:04:31.902Z,54.50
2019-04-06T09:07:01.607Z,47.73
2019-04-06T09:09:31.099Z,54.83
2019-04-06T09:12:00.637Z,64.63
2019-04-06T09:14:30.119Z,56.90
2019-04-06T09:16:59.583Z,59.67
2019-04-06T09:19:29.107Z,59.27
2019-04-06T09:21:58.639Z,59.88
2019-04-06T09:24:28.201Z,60.28
2019-04-06T09:26:57.753Z,54.38
2019-04-06T09:29:27.275Z,52.08
2019-04-06T09:31:56.821Z,59.58
2019-04-06T09:34:26.297Z,54.30
2019-04-06T09:36:55.862Z,58.95
2019-04-06T09:39:25.329Z,64.85
2019-04-06T09:41:54.877Z,61.20
2019-04-06T09:44:43.276Z,56.88
2019-04-06T09:47:23.937Z,62.60
2019-04-06T09:50:05.229Z,59.10
2019-04-06T09:53:00.859Z,55.43
2019-04-06T09:55:49.714Z,61.40
2019-04-06T09:58:41.217Z,60.45
2019-04-06T10:01:37.908Z,51.28
2019-04-06T10:04:13.726Z,64.25
2019-04-06T10:07:00.849Z,66.33
2019-04-06T10:09:52.836Z,57.30
2019-04-06T10:12:34.804Z,60.38
2019-04-06T10:15:23.972Z,52.43
2019-04-06T10:18:18.220Z,51.65
2019-04-06T10:21:04.244Z,59.88
2019-04-06T10:23:58.750Z,62.80
2019-04-06T10:26:47.203Z,47.20
2019-04-06T10:29:46.806Z,56.50
2019-04-06T10:32:21.434Z,55.00
2019-04-06T10:35:12.675Z,58.35
2019-04-06T10:38:00.239Z,59.03
2019-04-06T10:40:39.786Z,53.80
2019-04-06T10:43:27.260Z,58.52
2019-04-06T10:46:30.898Z,49.30
2019-04-06T10:49:19.562Z,51.58
2019-04-06T10:52:08.193Z,53.28
2019-04-06T10:54:49.888Z,45.00
2019-04-06T10:57:50.662Z,44.65
2019-04-06T11:00:32.053Z,54.03
2019-04-06T11:03:20.043Z,49.63
2019-04-06T11:06:27.022Z,48.73
2019-04-06T11:09:18.443Z,49.40
2019-04-06T11:12:06.847Z,46.60
2019-04-06T11:14:55.305Z,45.55
2019-04-06T11:18:01.878Z,45.65
2019-04-06T11:20:53.271Z,37.33
2019-04-06T11:23:47.919Z,40.17
2019-04-06T11:26:29.923Z,42.95
2019-04-06T11:29:14.625Z,45.23
2019-04-06T11:32:01.977Z,40.35
2019-04-06T11:34:49.050Z,37.03
2019-04-06T11:37:40.483Z,32.53
2019-04-06T11:40:27.244Z,34.10
2019-04-06T11:43:14.101Z,36.88
2019-04-06T11:45:58.771Z,32.08
2019-04-06T11:48:59.884Z,29.45
2019-04-06T11:51:50.350Z,22.80
2019-04-06T11:54:38.750Z,35.63
2019-04-06T11:57:16.978Z,31.02
2019-04-06T12:00:08.448Z,31.15
2019-04-06T12:02:46.901Z,36.00
2019-04-06T12:05:50.499Z,31.70
2019-04-06T12:08:40.402Z,28.42
2019-04-06T12:11:43.970Z,29.18
2019-04-06T12:14:32.411Z,20.45
2019-04-06T12:17:36.195Z,23.98
2019-04-06T12:20:28.897Z,26.48
2019-04-06T12:23:17.391Z,24.92
2019-04-06T12:25:55.752Z,17.05
2019-04-06T12:28:44.503Z,21.35
2019-04-06T12:31:25.608Z,18.15
2019-04-06T12:34:26.415Z,20.45
2019-04-06T12:37:18.020Z,22.00
2019-04-06T12:40:06.393Z,19.90
2019-04-06T12:42:53.216Z,24.15
2019-04-06T12:45:43.816Z,26.45
2019-04-06T12:48:32.263Z,19.70
2019-04-06T12:51:23.459Z,21.93
2019-04-06T12:54:08.478Z,26.85
2019-04-06T12:57:09.250Z,24.10
2019-04-06T12:59:59.392Z,22.02
2019-04-06T13:02:41.056Z,25.08
2019-04-06T13:05:41.599Z,20.65
2019-04-06T13:08:45.674Z,22.15
2019-04-06T13:11:34.237Z,24.77
2019-04-06T13:14:19.669Z,23.40
2019-04-06T13:17:10.898Z,23.60
2019-04-06T13:19:58.023Z,25.23
2019-04-06T13:22:52.807Z,25.35
2019-04-06T13:25:32.737Z,18.23
2019-04-06T13:28:18.132Z,31.17
2019-04-06T13:31:09.722Z,25.08
2019-04-06T13:34:01.526Z,24.37
2019-04-06T13:37:05.384Z,19.48
2019-04-06T13:39:47.697Z,22.48
2019-04-06T13:42:31.637Z,18.95
2019-04-06T13:45:14.953Z,16.07
2019-04-06T13:48:15.726Z,16.40
2019-04-06T13:50:50.716Z,23.32
2019-04-06T13:53:26.651Z,21.23
2019-04-06T13:56:05.586Z,21.35
2019-04-06T13:58:47.249Z,19.70
2019-04-06T14:01:38.896Z,19.92
2019-04-06T14:04:20.083Z,22.32
2019-04-06T14:07:11.448Z,21.05
2019-04-06T14:10:02.691Z,19.95
2019-04-06T14:12:55.590Z,19.70
2019-04-06T14:15:34.355Z,24.47
2019-04-06T14:18:31.711Z,22.32
2019-04-06T14:21:24.246Z,21.50
2019-04-06T14:24:18.806Z,25.62
2019-04-06T14:27:13.448Z,26.97
2019-04-06T14:29:53.530Z,25.08
2019-04-06T14:32:40.579Z,26.37
2019-04-06T14:35:29.162Z,26.33
2019-04-06T14:38:19.379Z,25.65
2019-04-06T14:41:20.235Z,26.65
2019-04-06T14:43:55.874Z,26.82
2019-04-06T14:46:44.312Z,23.18
2019-04-06T14:49:29.366Z,24.67
2019-04-06T14:52:14.447Z,21.93
2019-04-06T14:54:54.399Z,16.95
2019-04-06T14:57:36.439Z,17.05
2019-04-06T15:00:24.397Z,18.75
2019-04-06T15:03:19.066Z,13.28
2019-04-06T15:06:06.487Z,16.80
2019-04-06T15:09:01.041Z,16.67
2019-04-06T15:11:55.929Z,17.07
2019-04-06T15:14:59.700Z,15.15
2019-04-06T15:17:38.395Z,15.10
2019-04-06T15:20:17.858Z,15.10
2019-04-06T15:23:21.332Z,17.82
2019-04-06T15:26:12.838Z,16.52
2019-04-06T15:29:01.088Z,19.45
2019-04-06T15:31:48.520Z,14.18
2019-04-06T15:34:28.549Z,13.72
2019-04-06T15:37:09.626Z,17.00
2019-04-06T15:39:57.236Z,16.52
2019-04-06T15:42:44.522Z,20.40
2019-04-06T15:45:30.936Z,14.98
2019-04-06T15:48:38.452Z,16.02
2019-04-06T15:51:24.577Z,12.93
2019-04-06T15:54:03.419Z,16.27
2019-04-06T15:56:58.004Z,14.28
2019-04-06T15:59:52.492Z,14.43
2019-04-06T16:02:40.892Z,14.53
2019-04-06T16:05:28.331Z,15.03
2019-04-06T16:08:34.929Z,21.33
2019-04-06T16:11:22.054Z,15.13
2019-04-06T16:13:59.062Z,17.80
2019-04-06T16:16:50.870Z,16.00
2019-04-06T16:19:48.208Z,16.23
2019-04-06T16:22:37.240Z,18.57
2019-04-06T16:25:29.395Z,20.02
2019-04-06T16:28:13.104Z,17.90
2019-04-06T16:31:01.107Z,16.48
2019-04-06T16:33:37.663Z,17.02
2019-04-06T16:36:23.417Z,19.48
2019-04-06T16:39:15.314Z,17.82
2019-04-06T16:42:00.870Z,19.70
2019-04-06T16:44:49.447Z,19.50
2019-04-06T16:47:43.670Z,28.50
2019-04-06T16:50:38.147Z,30.25
2019-04-06T16:53:24.695Z,17.42
2019-04-06T16:56:20.754Z,18.02
2019-04-06T16:59:07.910Z,18.42
2019-04-06T17:02:00.317Z,21.00
2019-04-06T17:04:38.303Z,21.10
2019-04-06T17:07:26.749Z,23.52
2019-04-06T17:10:21.844Z,18.48
2019-04-06T17:13:08.990Z,17.25
2019-04-06T17:16:00.206Z,19.05
2019-04-06T17:18:48.635Z,22.80
2019-04-06T17:21:49.733Z,20.72
2019-04-06T17:24:41.055Z,21.30
2019-04-06T17:27:26.935Z,16.55
2019-04-06T17:30:21.460Z,14.85
2019-04-06T17:33:08.721Z,18.50
2019-04-06T17:35:57.197Z,15.60
2019-04-06T17:38:31.782Z,16.52
2019-04-06T17:41:26.402Z,16.50
2019-04-06T17:44:12.592Z,18.20
2019-04-06T17:46:59.621Z,18.42
2019-04-06T17:49:48.447Z,16.73
2019-04-06T17:52:45.851Z,13.98
2019-04-06T17:55:33.224Z,20.77
2019-04-06T17:58:20.770Z,16.15
2019-04-06T18:01:05.342Z,17.70
2019-04-06T18:03:53.012Z,17.55
2019-04-06T18:06:47.318Z,21.05
2019-04-06T18:09:38.839Z,17.55
2019-04-06T18:12:30.152Z,19.95
2019-04-06T18:14:59.704Z,19.80
2019-04-06T18:17:29.222Z,16.90
2019-04-06T18:19:58.764Z,14.35
2019-04-06T18:22:28.596Z,15.60
2019-04-06T18:24:58.247Z,17.40
2019-04-06T18:27:27.784Z,15.35
2019-04-06T18:29:57.378Z,19.98
2019-04-06T18:32:41.463Z,15.60
2019-04-06T18:35:12.366Z,20.52
2019-04-06T18:37:46.833Z,15.00
2019-04-06T18:40:24.847Z,16.95
2019-04-06T18:42:54.522Z,17.90
2019-04-06T18:45:24.281Z,18.00
2019-04-06T18:47:54.211Z,16.07
2019-04-06T18:50:33.270Z,24.15
2019-04-06T18:52:55.546Z,16.48
2019-04-06T18:55:25.471Z,20.08
2019-04-06T18:57:55.090Z,18.92
2019-04-06T19:00:25.220Z,18.17
2019-04-06T19:02:54.943Z,19.92
2019-04-06T19:05:24.596Z,16.02
2019-04-06T19:07:54.202Z,19.00
2019-04-06T19:10:23.861Z,17.85
2019-04-06T19:12:53.923Z,16.35
2019-04-06T19:15:23.920Z,17.48
2019-04-06T19:17:53.595Z,15.78
2019-04-06T19:20:23.489Z,15.15
2019-04-06T19:22:53.443Z,19.75
2019-04-06T19:25:23.352Z,16.23
2019-04-06T19:27:53.466Z,17.17
2019-04-06T19:30:23.998Z,17.42
2019-04-06T19:32:54.022Z,20.75
2019-04-06T19:35:23.865Z,19.92
2019-04-06T19:37:54.190Z,19.80
2019-04-06T19:40:23.954Z,16.85
2019-04-06T19:42:53.776Z,19.27
2019-04-06T19:45:23.534Z,20.75
2019-04-06T19:47:53.241Z,15.85
2019-04-06T19:50:23.021Z,15.83
2019-04-06T19:52:52.756Z,20.45
2019-04-06T19:55:22.849Z,18.42
2019-04-06T19:57:52.742Z,17.57
2019-04-06T20:00:24.570Z,17.20
2019-04-06T20:02:54.371Z,20.05
2019-04-06T20:05:24.065Z,16.55
2019-04-06T20:07:54.046Z,17.25
2019-04-06T20:10:24.047Z,18.23
2019-04-06T20:12:53.870Z,16.93
2019-04-06T20:15:23.563Z,20.75
2019-04-06T20:17:53.701Z,18.52
2019-04-06T20:20:23.514Z,19.27
2019-04-06T20:22:53.617Z,22.15
2019-04-06T20:25:23.431Z,19.52
2019-04-06T20:27:53.906Z,18.40
2019-04-06T20:30:24.204Z,18.55
2019-04-06T20:32:54.973Z,18.77
2019-04-06T20:35:25.685Z,23.00
2019-04-06T20:37:55.516Z,26.42
2019-04-06T20:40:25.886Z,22.77
2019-04-06T20:42:55.479Z,22.65
2019-04-06T20:45:25.059Z,20.45
2019-04-06T20:47:54.918Z,20.60
2019-04-06T20:50:24.507Z,22.93
2019-04-06T20:52:53.936Z,25.68
2019-04-06T20:55:23.451Z,19.90
2019-04-06T20:57:53.077Z,20.57
2019-04-06T21:00:23.141Z,20.62
2019-04-06T21:02:53.655Z,41.02
2019-04-06T21:05:23.346Z,27.90
2019-04-06T21:07:52.822Z,27.42
2019-04-06T21:10:22.357Z,26.57
2019-04-06T21:12:52.468Z,26.90
2019-04-06T21:15:22.695Z,35.70
2019-04-06T21:17:53.322Z,38.50
2019-04-06T21:20:23.208Z,29.50
2019-04-06T21:22:52.792Z,27.50
2019-04-06T21:25:22.413Z,30.77
2019-04-06T21:27:52.471Z,30.17
2019-04-06T21:30:22.457Z,24.65
2019-04-06T21:32:52.469Z,25.37
2019-04-06T21:35:22.537Z,31.52
2019-04-06T21:37:52.788Z,27.37
2019-04-06T21:40:22.707Z,30.32
2019-04-06T21:42:52.397Z,28.23
2019-04-06T21:45:21.918Z,34.48
2019-04-06T21:47:51.543Z,31.55
2019-04-06T21:50:21.835Z,27.42
2019-04-06T21:52:51.945Z,28.15
2019-04-06T21:55:21.874Z,23.05
2019-04-06T21:57:51.994Z,35.65
2019-04-06T22:00:49.842Z,24.40
2019-04-06T22:03:19.991Z,27.65
2019-04-06T22:05:50.542Z,21.97
2019-04-06T22:08:20.455Z,25.45
2019-04-06T22:10:50.137Z,25.92
2019-04-06T22:13:19.696Z,25.50
2019-04-06T22:15:49.187Z,24.72
2019-04-06T22:18:19.318Z,42.35
2019-04-06T22:20:49.080Z,25.27
2019-04-06T22:23:18.607Z,23.87
2019-04-06T22:25:48.095Z,25.70
2019-04-06T22:28:17.775Z,19.90
2019-04-06T22:30:47.227Z,18.98
2019-04-06T22:33:17.364Z,23.07
2019-04-06T22:35:47.460Z,21.65
2019-04-06T22:38:17.138Z,20.43
2019-04-06T22:40:46.642Z,20.50
2019-04-06T22:43:16.142Z,20.92
2019-04-06T22:45:45.611Z,19.27
2019-04-06T22:48:15.127Z,23.70
2019-04-06T22:50:44.685Z,20.82
2019-04-06T22:53:14.468Z,20.10
2019-04-06T22:55:44.524Z,19.30
2019-04-06T22:58:14.142Z,24.95
2019-04-06T23:00:50.403Z,17.27
2019-04-06T23:03:50.457Z,16.77
2019-04-06T23:06:25.459Z,23.60
2019-04-06T23:08:55.285Z,21.65
2019-04-06T23:11:24.925Z,17.80
2019-04-06T23:13:54.379Z,22.73
2019-04-06T23:16:23.883Z,20.30
2019-04-06T23:18:53.745Z,21.12
2019-04-06T23:21:23.696Z,24.75
2019-04-06T23:23:53.759Z,21.45
2019-04-06T23:26:23.805Z,21.85
2019-04-06T23:28:53.883Z,20.60
2019-04-06T23:31:23.520Z,22.45
2019-04-06T23:33:53.059Z,20.45
2019-04-06T23:36:22.709Z,21.23
2019-04-06T23:38:52.211Z,19.37
2019-04-06T23:41:21.874Z,20.55
2019-04-06T23:43:51.860Z,18.55
2019-04-06T23:46:21.400Z,21.00
2019-04-06T23:48:50.902Z,19.20
2019-04-06T23:51:20.375Z,21.50
2019-04-06T23:53:50.259Z,21.25
2019-04-06T23:56:20.522Z,18.02
2019-04-06T23:58:50.051Z,21.80
